KSSC/SSC METAR and TAF weather

Enter ICAO airport designator
Station Type Date Time Source
KSSC METAR 2019/06/27 09:56 UTC NOAA

KSSC 270956Z AUTO 34003KT 10SM OVC210 22/19 A3015 RMK AO2 SLP209 T02190189 $


Station Type Date Time Source
KSSC Decoded METAR 2019/06/27 09:56 UTC NOAA

Shaw Air Force Base, SC, United States (KSSC) 33-58N 080-29W 73M
Jun 27, 2019 - 05:56 AM EDT / 2019.06.27 0956 UTC
Wind: from the NNW (340 degrees) at 3 MPH (3 KT):0
Visibility: 10 mile(s):0
Sky conditions: overcast
Temperature: 71.4 F (21.9 C)
Dew Point: 66.0 F (18.9 C)
Relative Humidity: 83%
Pressure (altimeter): 30.15 in. Hg (1020 hPa)
ob: KSSC 270956Z AUTO 34003KT 10SM OVC210 22/19 A3015 RMK AO2 SLP209 T02190189
cycle: 10

Station Type Date Time Source
KSSC TAF 2019/06/27 07:08 UTC NOAA

TAF KSSC 270700Z 2707/2813 36009KT 9999 BKN210 QNH3009INS
BECMG 2717/2718 08009KT 9999 FEW040 SCT210 QNH3010INS TX34/2720Z TN20/2710Z

Example: see airport list